createdAt,value
2022-09-02T00:01:38.087Z,0.40
2022-09-02T00:04:22.851Z,0.40
2022-09-02T00:07:05.915Z,0.50
2022-09-02T00:09:49.146Z,0.50
2022-09-02T00:12:32.040Z,0.43
2022-09-02T00:15:16.358Z,0.50
2022-09-02T00:18:01.017Z,0.57
2022-09-02T00:20:45.523Z,0.55
2022-09-02T00:23:28.441Z,0.47
2022-09-02T00:26:11.551Z,0.30
2022-09-02T00:29:05.211Z,0.30
2022-09-02T00:31:48.425Z,0.30
2022-09-02T00:34:32.977Z,0.50
2022-09-02T00:37:16.203Z,0.50
2022-09-02T00:39:59.341Z,0.40
2022-09-02T00:42:42.553Z,0.70
2022-09-02T00:45:25.891Z,0.43
2022-09-02T00:48:08.829Z,0.63
2022-09-02T00:50:53.240Z,0.40
2022-09-02T00:53:39.549Z,0.30
2022-09-02T00:56:26.178Z,0.45
2022-09-02T00:59:10.146Z,0.32
2022-09-02T01:01:53.043Z,0.45
2022-09-02T01:04:36.218Z,0.40
2022-09-02T01:07:22.328Z,0.50
2022-09-02T01:10:06.369Z,0.40
2022-09-02T01:12:49.282Z,0.50
2022-09-02T01:15:33.152Z,0.60
2022-09-02T01:18:18.718Z,0.40
2022-09-02T01:21:09.426Z,0.40
2022-09-02T01:23:54.031Z,0.30
2022-09-02T01:26:36.993Z,0.40
2022-09-02T01:29:19.866Z,0.30
2022-09-02T01:32:03.741Z,0.45
2022-09-02T01:34:47.873Z,0.40
2022-09-02T01:37:32.582Z,0.40
2022-09-02T01:40:18.988Z,0.40
2022-09-02T01:43:03.030Z,0.40
2022-09-02T01:45:47.143Z,0.30
2022-09-02T01:48:31.000Z,0.50
2022-09-02T01:51:17.582Z,0.50
2022-09-02T01:54:01.868Z,0.30
2022-09-02T01:56:46.318Z,0.40
2022-09-02T01:59:29.840Z,0.77
2022-09-02T02:02:13.224Z,0.40
2022-09-02T02:04:57.839Z,0.47
2022-09-02T02:07:43.187Z,0.40
2022-09-02T02:10:29.784Z,0.32
2022-09-02T02:13:14.307Z,0.50
2022-09-02T02:15:58.596Z,0.40
2022-09-02T02:18:42.173Z,0.30
2022-09-02T02:21:25.109Z,0.30
2022-09-02T02:24:08.515Z,0.30
2022-09-02T02:26:52.545Z,0.50
2022-09-02T02:29:37.927Z,0.40
2022-09-02T02:32:21.915Z,0.40
2022-09-02T02:35:05.749Z,0.35
2022-09-02T02:37:50.588Z,0.40
2022-09-02T02:40:33.947Z,0.55
2022-09-02T02:43:17.062Z,0.50
2022-09-02T02:46:01.386Z,0.40
2022-09-02T02:48:44.766Z,0.32
2022-09-02T02:51:27.951Z,0.47
2022-09-02T02:54:14.497Z,0.40
2022-09-02T02:56:57.859Z,0.38
2022-09-02T02:59:40.871Z,0.40
2022-09-02T03:02:48.251Z,0.40
2022-09-02T03:05:37.802Z,0.40
2022-09-02T03:08:21.757Z,0.38
2022-09-02T03:11:10.208Z,0.40
2022-09-02T03:13:56.482Z,0.40
2022-09-02T03:16:39.953Z,0.57
2022-09-02T03:19:24.297Z,0.43
2022-09-02T03:22:10.258Z,0.30
2022-09-02T03:24:53.501Z,0.50
2022-09-02T03:27:37.931Z,0.50
2022-09-02T03:30:21.848Z,0.32
2022-09-02T03:33:05.918Z,0.40
2022-09-02T03:35:51.147Z,0.38
2022-09-02T03:38:35.802Z,0.30
2022-09-02T03:41:19.319Z,0.32
2022-09-02T03:44:03.405Z,0.32
2022-09-02T03:46:46.433Z,0.45
2022-09-02T03:49:29.310Z,0.40
2022-09-02T03:52:13.667Z,0.50
2022-09-02T03:54:57.714Z,0.30
2022-09-02T03:57:41.743Z,0.47
2022-09-02T04:00:29.130Z,0.25
2022-09-02T04:03:13.959Z,0.50
2022-09-02T04:05:57.215Z,0.40
2022-09-02T04:08:45.031Z,0.40
2022-09-02T04:11:28.326Z,0.43
2022-09-02T04:14:11.961Z,0.50
2022-09-02T04:16:55.096Z,0.50
2022-09-02T04:19:39.360Z,0.40
2022-09-02T04:22:25.053Z,0.40
2022-09-02T04:25:10.196Z,0.35
2022-09-02T04:27:56.505Z,0.38
2022-09-02T04:30:40.164Z,0.50
2022-09-02T04:33:23.589Z,0.55
2022-09-02T04:36:12.802Z,0.43
2022-09-02T04:38:59.336Z,0.40
2022-09-02T04:41:47.162Z,0.43
2022-09-02T04:44:30.730Z,0.50
2022-09-02T04:47:14.039Z,0.60
2022-09-02T04:49:57.169Z,0.60
2022-09-02T04:52:40.390Z,0.50
2022-09-02T04:55:23.529Z,0.50
2022-09-02T04:58:09.208Z,0.47
2022-09-02T05:00:52.563Z,0.88
2022-09-02T05:03:35.860Z,0.70
2022-09-02T05:06:21.352Z,0.50
2022-09-02T05:09:05.010Z,0.60
2022-09-02T05:11:52.092Z,0.52
2022-09-02T05:14:43.633Z,0.30
2022-09-02T05:17:27.052Z,0.60
2022-09-02T05:20:10.918Z,0.52
2022-09-02T05:22:55.760Z,0.60
2022-09-02T05:25:39.418Z,0.52
2022-09-02T05:28:22.873Z,0.50
2022-09-02T05:31:20.706Z,0.50
2022-09-02T05:34:06.479Z,0.50
2022-09-02T05:36:52.060Z,0.60
2022-09-02T05:39:35.822Z,0.60
2022-09-02T05:42:20.705Z,0.60
2022-09-02T05:45:08.933Z,0.60
2022-09-02T05:47:53.119Z,0.52
2022-09-02T05:50:38.251Z,0.60
2022-09-02T05:53:21.374Z,0.60
2022-09-02T05:56:10.837Z,0.60
2022-09-02T05:58:56.205Z,0.60
2022-09-02T06:01:39.606Z,0.70
2022-09-02T06:04:22.921Z,0.63
2022-09-02T06:07:07.329Z,0.75
2022-09-02T06:09:51.197Z,0.70
2022-09-02T06:12:39.344Z,0.50
2022-09-02T06:15:27.787Z,0.65
2022-09-02T06:18:11.730Z,0.60
2022-09-02T06:20:57.638Z,0.60
2022-09-02T06:23:47.608Z,0.50
2022-09-02T06:26:30.625Z,0.60
2022-09-02T06:29:13.646Z,0.40
2022-09-02T06:31:56.991Z,0.70
2022-09-02T06:34:41.332Z,0.70
2022-09-02T06:37:27.036Z,0.43
2022-09-02T06:40:13.882Z,0.55
2022-09-02T06:42:57.569Z,0.60
2022-09-02T06:45:48.285Z,0.50
2022-09-02T06:48:31.299Z,0.45
2022-09-02T06:51:17.699Z,0.50
2022-09-02T06:54:01.553Z,0.90
2022-09-02T06:56:50.410Z,0.50
2022-09-02T06:59:40.400Z,0.57
2022-09-02T07:02:23.623Z,0.60
2022-09-02T07:05:10.229Z,0.63
2022-09-02T07:08:02.907Z,0.50
2022-09-02T07:10:54.908Z,0.50
2022-09-02T07:13:39.679Z,0.50
2022-09-02T07:16:26.945Z,0.40
2022-09-02T07:19:16.168Z,0.50
2022-09-02T07:22:01.727Z,0.45
2022-09-02T07:24:46.810Z,0.38
2022-09-02T07:27:30.198Z,0.40
2022-09-02T07:30:15.007Z,0.30
2022-09-02T07:33:00.283Z,0.70
2022-09-02T07:35:44.640Z,0.40
2022-09-02T07:38:29.298Z,0.50
2022-09-02T07:41:13.305Z,0.50
2022-09-02T07:43:59.756Z,0.32
2022-09-02T07:46:46.942Z,0.43
2022-09-02T07:50:15.277Z,0.38
2022-09-02T07:52:35.229Z,0.30
2022-09-02T07:55:18.146Z,0.40
2022-09-02T07:58:02.402Z,0.40
2022-09-02T08:00:45.331Z,0.43
2022-09-02T08:03:29.899Z,0.50
2022-09-02T08:06:14.970Z,0.40
2022-09-02T08:08:58.198Z,0.63
2022-09-02T08:11:41.425Z,0.30
2022-09-02T08:14:26.118Z,0.40
2022-09-02T08:17:08.947Z,0.32
2022-09-02T08:19:53.658Z,0.30
2022-09-02T08:22:36.910Z,0.40
2022-09-02T08:25:20.108Z,0.40
2022-09-02T08:28:03.061Z,0.40
2022-09-02T08:30:46.056Z,0.40
2022-09-02T08:33:28.868Z,0.50
2022-09-02T08:36:15.179Z,0.40
2022-09-02T08:38:58.792Z,0.60
2022-09-02T08:41:48.481Z,0.40
2022-09-02T08:44:35.125Z,0.50
2022-09-02T08:47:23.038Z,0.40
2022-09-02T08:50:08.195Z,0.30
2022-09-02T08:53:00.342Z,0.50
2022-09-02T08:55:45.924Z,0.47
2022-09-02T08:58:30.177Z,0.30
2022-09-02T09:01:20.021Z,0.40
2022-09-02T09:04:07.179Z,0.30
2022-09-02T09:06:56.665Z,0.30
2022-09-02T09:09:49.035Z,0.50
2022-09-02T09:12:41.031Z,0.40
2022-09-02T09:15:30.912Z,0.30
2022-09-02T09:18:20.218Z,0.40
2022-09-02T09:21:03.331Z,0.38
2022-09-02T09:23:46.839Z,0.40
2022-09-02T09:26:34.472Z,0.40
2022-09-02T09:29:17.602Z,0.45
2022-09-02T09:32:01.293Z,0.55
2022-09-02T09:35:03.407Z,0.45
2022-09-02T09:37:48.170Z,0.40
2022-09-02T09:40:32.323Z,0.30
2022-09-02T09:43:17.202Z,0.40
2022-09-02T09:46:02.685Z,0.40
2022-09-02T09:48:50.113Z,0.45
2022-09-02T09:51:47.059Z,0.30
2022-09-02T09:54:33.964Z,0.30
2022-09-02T09:57:21.473Z,0.40
2022-09-02T10:00:11.484Z,0.40
2022-09-02T10:02:56.429Z,0.45
2022-09-02T10:05:40.705Z,0.50
2022-09-02T10:08:24.657Z,0.35
2022-09-02T10:11:21.586Z,0.30
2022-09-02T10:14:05.430Z,0.40
2022-09-02T10:16:53.121Z,0.30
2022-09-02T10:19:39.644Z,0.50
2022-09-02T10:22:38.447Z,0.40
2022-09-02T10:25:42.693Z,0.50
2022-09-02T10:28:35.642Z,0.63
2022-09-02T10:31:23.622Z,0.40
2022-09-02T10:34:13.240Z,0.40
2022-09-02T10:37:07.013Z,0.50
2022-09-02T10:40:01.226Z,0.50
2022-09-02T10:42:50.521Z,0.35
2022-09-02T10:45:37.211Z,0.30
2022-09-02T10:48:29.416Z,0.50
2022-09-02T10:51:21.615Z,0.45
2022-09-02T10:54:10.986Z,0.55
2022-09-02T10:56:58.449Z,0.52
2022-09-02T10:59:44.369Z,0.40
2022-09-02T11:02:29.442Z,0.40
2022-09-02T11:05:17.255Z,0.30
2022-09-02T11:08:04.919Z,0.50
2022-09-02T11:10:55.058Z,0.30
2022-09-02T11:13:41.760Z,0.30
2022-09-02T11:16:27.062Z,0.38
2022-09-02T11:19:12.326Z,0.20
2022-09-02T11:21:58.318Z,0.30
2022-09-02T11:24:46.602Z,0.10
2022-09-02T11:27:42.047Z,0.20
2022-09-02T11:30:28.350Z,0.13
2022-09-02T11:33:14.940Z,0.20
2022-09-02T11:36:00.804Z,0.10
2022-09-02T11:38:46.043Z,0.10
2022-09-02T11:41:37.210Z,0.30
2022-09-02T11:44:31.457Z,0.38
2022-09-02T11:47:30.896Z,0.25
2022-09-02T11:50:26.095Z,0.20
2022-09-02T11:53:19.274Z,0.20
2022-09-02T11:56:16.112Z,0.20
2022-09-02T11:59:00.547Z,0.30
2022-09-02T12:01:49.520Z,0.30
2022-09-02T12:07:54.983Z,0.20
2022-09-02T12:10:53.059Z,0.20
2022-09-02T12:13:38.295Z,0.30
2022-09-02T12:16:42.532Z,0.20
2022-09-02T12:19:29.589Z,0.10
2022-09-02T12:22:32.644Z,0.10
2022-09-02T12:25:38.326Z,0.10
2022-09-02T12:28:26.632Z,0.10
2022-09-02T12:31:21.798Z,0.20
2022-09-02T12:34:28.933Z,0.10
2022-09-02T12:37:31.923Z,0.05
2022-09-02T12:40:17.043Z,0.13
2022-09-02T12:43:01.511Z,0.10
2022-09-02T12:45:45.374Z,0.10
2022-09-02T12:48:38.602Z,0.10
2022-09-02T12:51:36.707Z,0.20
2022-09-02T12:54:24.461Z,0.17
2022-09-02T12:57:08.283Z,0.10
2022-09-02T12:59:51.723Z,0.10
2022-09-02T13:02:43.330Z,0.30
2022-09-02T13:05:29.811Z,0.20
2022-09-02T13:08:27.415Z,0.20
2022-09-02T13:11:43.693Z,0.30
2022-09-02T13:14:42.602Z,0.20
2022-09-02T13:17:40.336Z,0.20
2022-09-02T13:20:37.950Z,0.22
2022-09-02T13:23:50.879Z,0.10
2022-09-02T13:26:50.308Z,0.10
2022-09-02T13:29:46.112Z,0.10
2022-09-02T13:32:31.138Z,0.10
2022-09-02T13:35:24.117Z,0.20
2022-09-02T13:40:59.662Z,0.10
2022-09-02T13:43:42.679Z,0.10
2022-09-02T13:46:25.727Z,0.10
2022-09-02T13:49:10.604Z,0.10
2022-09-02T13:51:54.784Z,0.10
2022-09-02T13:54:38.768Z,0.10
2022-09-02T13:57:23.419Z,0.00
2022-09-02T14:00:08.225Z,0.10
2022-09-02T14:02:56.824Z,0.10
2022-09-02T14:05:46.889Z,0.10
2022-09-02T14:08:31.686Z,0.10
2022-09-02T14:11:16.058Z,0.10
2022-09-02T14:13:59.162Z,0.10
2022-09-02T14:16:42.085Z,0.10
2022-09-02T14:19:26.936Z,0.10
2022-09-02T14:22:20.917Z,0.10
2022-09-02T14:25:09.574Z,0.10
2022-09-02T14:27:53.337Z,0.10
2022-09-02T14:30:36.949Z,0.10
2022-09-02T14:33:27.345Z,0.10
2022-09-02T14:36:32.293Z,0.10
2022-09-02T14:39:17.502Z,0.13
2022-09-02T14:42:00.947Z,0.17
2022-09-02T14:44:47.839Z,0.10
2022-09-02T14:47:30.915Z,0.10
2022-09-02T14:50:17.632Z,0.10
2022-09-02T14:53:04.964Z,0.20
2022-09-02T14:55:52.477Z,0.20
2022-09-02T14:58:35.351Z,0.20
2022-09-02T15:01:18.264Z,0.20
2022-09-02T15:04:04.960Z,0.28
2022-09-02T15:06:48.052Z,0.40
2022-09-02T15:09:31.459Z,0.30
2022-09-02T15:12:20.111Z,0.22
2022-09-02T15:15:03.698Z,0.30
2022-09-02T15:17:46.574Z,0.30
2022-09-02T15:20:29.801Z,0.30
2022-09-02T15:23:12.777Z,0.30
2022-09-02T15:25:56.360Z,0.40
2022-09-02T15:28:40.900Z,0.50
2022-09-02T15:31:23.906Z,0.22
2022-09-02T15:34:06.952Z,0.30
2022-09-02T15:36:55.135Z,0.50
2022-09-02T15:39:38.046Z,0.40
2022-09-02T15:42:20.936Z,0.47
2022-09-02T15:45:05.552Z,0.40
2022-09-02T15:47:48.804Z,0.60
2022-09-02T15:50:32.315Z,0.55
2022-09-02T15:53:17.346Z,0.30
2022-09-02T15:56:00.234Z,0.40
2022-09-02T15:58:43.327Z,0.40
2022-09-02T16:01:28.889Z,0.40
2022-09-02T16:04:12.259Z,0.47
2022-09-02T16:06:55.344Z,0.30
2022-09-02T16:09:38.296Z,0.38
2022-09-02T16:12:21.422Z,0.50
2022-09-02T16:15:04.298Z,0.47
2022-09-02T16:17:50.131Z,0.38
2022-09-02T16:20:32.910Z,0.40
2022-09-02T16:23:15.761Z,0.30
2022-09-02T16:26:22.231Z,0.40
2022-09-02T16:29:06.027Z,0.38
2022-09-02T16:32:02.255Z,0.40
2022-09-02T16:34:56.106Z,0.20
2022-09-02T16:37:39.000Z,0.30
2022-09-02T16:40:22.375Z,0.30
2022-09-02T16:43:05.355Z,0.30
2022-09-02T16:45:48.549Z,0.45
2022-09-02T16:48:33.035Z,0.40
2022-09-02T16:51:17.745Z,0.40
2022-09-02T16:54:01.327Z,0.40
2022-09-02T16:56:44.452Z,0.40
2022-09-02T16:59:27.390Z,0.40
2022-09-02T17:02:11.562Z,0.28
2022-09-02T17:04:57.396Z,0.30
2022-09-02T17:07:41.666Z,0.30
2022-09-02T17:10:24.678Z,0.47
2022-09-02T17:13:07.928Z,0.30
2022-09-02T17:15:50.866Z,0.28
2022-09-02T17:18:33.813Z,0.60
2022-09-02T17:21:18.813Z,0.57
2022-09-02T17:24:03.777Z,0.60
2022-09-02T17:26:50.758Z,0.30
2022-09-02T17:29:50.027Z,0.40
2022-09-02T17:32:33.540Z,0.30
2022-09-02T17:35:16.488Z,0.40
2022-09-02T17:37:59.275Z,0.40
2022-09-02T17:41:00.937Z,0.47
2022-09-02T17:43:44.035Z,0.50
2022-09-02T17:46:29.689Z,0.40
2022-09-02T17:49:17.214Z,0.50
2022-09-02T17:52:01.085Z,0.40
2022-09-02T17:54:44.635Z,0.52
2022-09-02T17:57:32.876Z,0.30
2022-09-02T18:00:16.412Z,0.50
2022-09-02T18:03:24.291Z,0.47
2022-09-02T18:06:21.277Z,0.43
2022-09-02T18:09:10.825Z,0.40
2022-09-02T18:11:54.270Z,0.50
2022-09-02T18:14:41.181Z,0.60
2022-09-02T18:17:27.122Z,0.68
2022-09-02T18:20:13.961Z,0.40
2022-09-02T18:23:04.246Z,0.57
2022-09-02T18:25:50.941Z,0.52
2022-09-02T18:28:55.391Z,0.60
2022-09-02T18:31:45.301Z,0.80
2022-09-02T18:34:35.801Z,0.95
2022-09-02T18:37:26.627Z,0.52
2022-09-02T18:40:18.067Z,0.43
2022-09-02T18:43:07.596Z,0.65
2022-09-02T18:45:51.632Z,0.68
2022-09-02T18:48:37.244Z,0.50
2022-09-02T18:51:24.285Z,0.60
2022-09-02T18:54:11.124Z,0.60
2022-09-02T18:56:56.594Z,0.55
2022-09-02T18:59:44.158Z,0.50
2022-09-02T19:02:33.800Z,0.73
2022-09-02T19:05:19.359Z,1.05
2022-09-02T19:08:21.788Z,0.68
2022-09-02T19:14:09.098Z,0.60
2022-09-02T19:16:52.018Z,0.98
2022-09-02T19:19:35.508Z,0.60
2022-09-02T19:22:22.690Z,0.68
2022-09-02T19:25:08.343Z,0.70
2022-09-02T19:27:52.007Z,0.63
2022-09-02T19:30:37.305Z,0.50
2022-09-02T19:33:20.686Z,0.55
2022-09-02T19:36:04.322Z,0.90
2022-09-02T19:38:48.575Z,0.82
2022-09-02T19:41:31.495Z,0.52
2022-09-02T19:44:15.553Z,1.23
2022-09-02T19:50:03.205Z,1.00
2022-09-02T19:52:46.918Z,0.90
2022-09-02T19:55:33.736Z,0.60
2022-09-02T19:58:16.746Z,0.93
2022-09-02T20:00:59.612Z,0.73
2022-09-02T20:03:42.717Z,0.47
2022-09-02T20:06:26.039Z,0.60
2022-09-02T20:09:09.012Z,0.60
2022-09-02T20:11:53.912Z,0.60
2022-09-02T20:14:36.834Z,0.50
2022-09-02T20:17:20.566Z,0.52
2022-09-02T20:20:08.307Z,0.50
2022-09-02T20:22:54.738Z,0.60
2022-09-02T20:25:43.260Z,0.65
2022-09-02T20:28:33.279Z,0.63
2022-09-02T20:31:23.054Z,0.50
2022-09-02T20:34:09.315Z,0.80
2022-09-02T20:36:55.917Z,0.60
2022-09-02T20:39:50.120Z,0.70
2022-09-02T20:42:49.640Z,0.52
2022-09-02T20:45:38.055Z,0.60
2022-09-02T20:48:40.059Z,0.63
2022-09-02T20:51:24.398Z,0.60
2022-09-02T20:54:19.891Z,0.50
2022-09-02T20:57:08.456Z,0.50
2022-09-02T20:59:54.530Z,0.50
2022-09-02T21:02:43.173Z,0.50
2022-09-02T21:05:31.376Z,0.52
2022-09-02T21:08:24.666Z,0.60
2022-09-02T21:11:24.219Z,0.40
2022-09-02T21:14:09.592Z,0.40
2022-09-02T21:16:55.402Z,0.50
2022-09-02T21:19:42.925Z,0.50
2022-09-02T21:22:28.164Z,0.32
2022-09-02T21:25:13.440Z,0.50
2022-09-02T21:28:04.525Z,0.30
2022-09-02T21:30:49.808Z,0.50
2022-09-02T21:33:34.889Z,0.40
2022-09-02T21:36:20.873Z,0.40
2022-09-02T21:39:07.345Z,0.40
2022-09-02T21:41:56.101Z,0.40
2022-09-02T21:44:46.595Z,0.30
2022-09-02T21:47:32.108Z,0.50
2022-09-02T21:50:21.877Z,0.50
2022-09-02T21:53:10.558Z,0.38
2022-09-02T21:55:59.505Z,0.30
2022-09-02T21:58:49.372Z,0.40
2022-09-02T22:01:42.188Z,0.40
2022-09-02T22:04:32.625Z,0.40
2022-09-02T22:07:19.212Z,0.40
2022-09-02T22:10:08.669Z,0.50
2022-09-02T22:12:52.826Z,0.32
2022-09-02T22:15:42.518Z,0.32
2022-09-02T22:18:34.263Z,0.63
2022-09-02T22:21:26.869Z,0.47
2022-09-02T22:24:09.728Z,0.40
2022-09-02T22:26:55.494Z,0.47
2022-09-02T22:29:40.175Z,0.35
2022-09-02T22:32:25.251Z,0.50
2022-09-02T22:35:09.807Z,0.50
2022-09-02T22:37:56.152Z,0.40
2022-09-02T22:40:42.581Z,0.30
2022-09-02T22:43:30.697Z,0.40
2022-09-02T22:46:39.913Z,0.60
2022-09-02T22:49:46.368Z,0.50
2022-09-02T22:52:49.753Z,0.50
2022-09-02T22:55:49.112Z,0.40
2022-09-02T22:58:51.604Z,0.40
2022-09-02T23:01:42.936Z,0.40
2022-09-02T23:04:32.367Z,0.43
2022-09-02T23:07:17.176Z,0.40
2022-09-02T23:10:01.315Z,0.57
2022-09-02T23:12:48.977Z,0.40
2022-09-02T23:15:37.532Z,0.30
2022-09-02T23:18:26.925Z,0.47
2022-09-02T23:21:22.497Z,0.30
2022-09-02T23:24:09.901Z,0.40
2022-09-02T23:26:58.042Z,0.40
2022-09-02T23:29:43.625Z,0.60
2022-09-02T23:32:43.600Z,0.40
2022-09-02T23:35:35.061Z,0.30
2022-09-02T23:38:26.244Z,0.43
2022-09-02T23:41:18.522Z,0.47
2022-09-02T23:44:01.529Z,0.60
2022-09-02T23:46:47.394Z,0.60
2022-09-02T23:49:36.267Z,0.50
2022-09-02T23:52:27.089Z,0.50
2022-09-02T23:55:13.105Z,0.47
2022-09-02T23:58:05.199Z,0.45
